sensor_id;sensor_type;location;lat;lon;timestamp;temperature;humidity
1221;DHT22;600;48.044;7.878;2022-07-15T00:01:51;25.50;77.30
1221;DHT22;600;48.044;7.878;2022-07-15T00:04:18;25.40;77.10
1221;DHT22;600;48.044;7.878;2022-07-15T00:06:44;25.30;77.20
1221;DHT22;600;48.044;7.878;2022-07-15T00:09:11;25.30;77.10
1221;DHT22;600;48.044;7.878;2022-07-15T00:11:37;25.30;77.30
1221;DHT22;600;48.044;7.878;2022-07-15T00:14:05;25.30;77.60
1221;DHT22;600;48.044;7.878;2022-07-15T00:16:32;25.20;77.70
1221;DHT22;600;48.044;7.878;2022-07-15T00:18:58;25.20;77.70
1221;DHT22;600;48.044;7.878;2022-07-15T00:21:25;25.10;78.30
1221;DHT22;600;48.044;7.878;2022-07-15T00:23:51;25.10;77.90
1221;DHT22;600;48.044;7.878;2022-07-15T00:26:18;25.00;78.50
1221;DHT22;600;48.044;7.878;2022-07-15T00:28:45;25.00;78.80
1221;DHT22;600;48.044;7.878;2022-07-15T00:31:13;24.90;78.60
1221;DHT22;600;48.044;7.878;2022-07-15T00:33:40;24.90;78.70
1221;DHT22;600;48.044;7.878;2022-07-15T00:36:06;24.90;78.50
1221;DHT22;600;48.044;7.878;2022-07-15T00:38:33;24.90;78.70
1221;DHT22;600;48.044;7.878;2022-07-15T00:40:59;24.80;78.90
1221;DHT22;600;48.044;7.878;2022-07-15T00:43:27;24.80;78.70
1221;DHT22;600;48.044;7.878;2022-07-15T00:45:53;24.70;78.80
1221;DHT22;600;48.044;7.878;2022-07-15T00:48:21;24.70;78.80
1221;DHT22;600;48.044;7.878;2022-07-15T00:50:48;24.60;78.90
1221;DHT22;600;48.044;7.878;2022-07-15T00:53:16;24.60;79.20
1221;DHT22;600;48.044;7.878;2022-07-15T00:55:44;24.60;79.90
1221;DHT22;600;48.044;7.878;2022-07-15T00:58:13;24.50;80.10
1221;DHT22;600;48.044;7.878;2022-07-15T01:00:41;24.50;80.10
1221;DHT22;600;48.044;7.878;2022-07-15T01:03:08;24.40;80.30
1221;DHT22;600;48.044;7.878;2022-07-15T01:05:36;24.40;80.70
1221;DHT22;600;48.044;7.878;2022-07-15T01:08:03;24.40;81.10
1221;DHT22;600;48.044;7.878;2022-07-15T01:10:30;24.30;81.40
1221;DHT22;600;48.044;7.878;2022-07-15T01:12:57;24.30;81.40
1221;DHT22;600;48.044;7.878;2022-07-15T01:15:28;24.20;81.30
1221;DHT22;600;48.044;7.878;2022-07-15T01:17:56;24.20;81.90
1221;DHT22;600;48.044;7.878;2022-07-15T01:20:23;24.10;82.20
1221;DHT22;600;48.044;7.878;2022-07-15T01:22:51;24.10;82.40
1221;DHT22;600;48.044;7.878;2022-07-15T01:25:17;24.10;82.90
1221;DHT22;600;48.044;7.878;2022-07-15T01:27:44;24.00;83.30
1221;DHT22;600;48.044;7.878;2022-07-15T01:30:11;24.00;83.10
1221;DHT22;600;48.044;7.878;2022-07-15T01:32:37;24.00;83.30
1221;DHT22;600;48.044;7.878;2022-07-15T01:35:04;23.90;83.50
1221;DHT22;600;48.044;7.878;2022-07-15T01:37:31;23.90;84.30
1221;DHT22;600;48.044;7.878;2022-07-15T01:39:59;23.80;84.10
1221;DHT22;600;48.044;7.878;2022-07-15T01:42:26;23.80;83.90
1221;DHT22;600;48.044;7.878;2022-07-15T01:44:52;23.80;84.10
1221;DHT22;600;48.044;7.878;2022-07-15T01:47:19;23.80;84.00
1221;DHT22;600;48.044;7.878;2022-07-15T01:49:45;23.80;84.10
1221;DHT22;600;48.044;7.878;2022-07-15T01:52:11;23.70;84.20
1221;DHT22;600;48.044;7.878;2022-07-15T01:54:37;23.70;84.20
1221;DHT22;600;48.044;7.878;2022-07-15T01:57:05;23.70;84.30
1221;DHT22;600;48.044;7.878;2022-07-15T01:59:32;23.70;84.50
1221;DHT22;600;48.044;7.878;2022-07-15T02:01:58;23.60;84.30
1221;DHT22;600;48.044;7.878;2022-07-15T02:04:25;23.60;84.10
1221;DHT22;600;48.044;7.878;2022-07-15T02:06:52;23.50;84.20
1221;DHT22;600;48.044;7.878;2022-07-15T02:09:18;23.50;84.60
1221;DHT22;600;48.044;7.878;2022-07-15T02:11:45;23.50;84.80
1221;DHT22;600;48.044;7.878;2022-07-15T02:14:13;23.40;84.80
1221;DHT22;600;48.044;7.878;2022-07-15T02:16:39;23.40;85.00
1221;DHT22;600;48.044;7.878;2022-07-15T02:19:06;23.40;85.10
1221;DHT22;600;48.044;7.878;2022-07-15T02:21:34;23.30;85.30
1221;DHT22;600;48.044;7.878;2022-07-15T02:24:00;23.30;85.40
1221;DHT22;600;48.044;7.878;2022-07-15T02:26:27;23.20;85.40
1221;DHT22;600;48.044;7.878;2022-07-15T02:28:54;23.20;85.30
1221;DHT22;600;48.044;7.878;2022-07-15T02:31:21;23.20;85.00
1221;DHT22;600;48.044;7.878;2022-07-15T02:33:48;23.20;85.00
1221;DHT22;600;48.044;7.878;2022-07-15T02:36:15;23.20;84.90
1221;DHT22;600;48.044;7.878;2022-07-15T02:38:42;23.10;84.60
1221;DHT22;600;48.044;7.878;2022-07-15T02:41:08;23.10;85.00
1221;DHT22;600;48.044;7.878;2022-07-15T02:43:37;23.10;85.00
1221;DHT22;600;48.044;7.878;2022-07-15T02:46:04;23.10;84.80
1221;DHT22;600;48.044;7.878;2022-07-15T02:48:32;23.00;85.60
1221;DHT22;600;48.044;7.878;2022-07-15T02:50:58;23.00;84.70
1221;DHT22;600;48.044;7.878;2022-07-15T02:53:25;23.00;84.90
1221;DHT22;600;48.044;7.878;2022-07-15T02:55:54;23.00;84.80
1221;DHT22;600;48.044;7.878;2022-07-15T02:58:21;22.90;84.50
1221;DHT22;600;48.044;7.878;2022-07-15T03:00:47;22.90;84.70
1221;DHT22;600;48.044;7.878;2022-07-15T03:03:14;22.80;84.50
1221;DHT22;600;48.044;7.878;2022-07-15T03:05:42;22.80;84.90
1221;DHT22;600;48.044;7.878;2022-07-15T03:08:09;22.70;85.00
1221;DHT22;600;48.044;7.878;2022-07-15T03:10:36;22.70;85.20
1221;DHT22;600;48.044;7.878;2022-07-15T03:13:03;22.70;85.60
1221;DHT22;600;48.044;7.878;2022-07-15T03:15:29;22.60;85.30
1221;DHT22;600;48.044;7.878;2022-07-15T03:17:56;22.60;84.90
1221;DHT22;600;48.044;7.878;2022-07-15T03:20:22;22.60;85.20
1221;DHT22;600;48.044;7.878;2022-07-15T03:22:50;22.60;84.70
1221;DHT22;600;48.044;7.878;2022-07-15T03:25:17;22.60;84.70
1221;DHT22;600;48.044;7.878;2022-07-15T03:27:43;22.50;84.60
1221;DHT22;600;48.044;7.878;2022-07-15T03:30:10;22.50;84.90
1221;DHT22;600;48.044;7.878;2022-07-15T03:32:37;22.40;85.00
1221;DHT22;600;48.044;7.878;2022-07-15T03:35:06;22.40;85.30
1221;DHT22;600;48.044;7.878;2022-07-15T03:37:33;22.40;85.30
1221;DHT22;600;48.044;7.878;2022-07-15T03:40:01;22.40;85.20
1221;DHT22;600;48.044;7.878;2022-07-15T03:42:28;22.30;85.30
1221;DHT22;600;48.044;7.878;2022-07-15T03:44:54;22.30;85.60
1221;DHT22;600;48.044;7.878;2022-07-15T03:47:21;22.30;85.50
1221;DHT22;600;48.044;7.878;2022-07-15T03:49:48;22.20;85.20
1221;DHT22;600;48.044;7.878;2022-07-15T03:52:14;22.20;85.50
1221;DHT22;600;48.044;7.878;2022-07-15T03:54:41;22.20;86.00
1221;DHT22;600;48.044;7.878;2022-07-15T03:57:09;22.20;86.30
1221;DHT22;600;48.044;7.878;2022-07-15T03:59:35;22.20;86.30
1221;DHT22;600;48.044;7.878;2022-07-15T04:02:02;22.10;86.20
1221;DHT22;600;48.044;7.878;2022-07-15T04:04:28;22.20;85.90
1221;DHT22;600;48.044;7.878;2022-07-15T04:06:55;22.10;85.80
1221;DHT22;600;48.044;7.878;2022-07-15T04:09:21;22.10;85.40
1221;DHT22;600;48.044;7.878;2022-07-15T04:11:48;22.20;85.00
1221;DHT22;600;48.044;7.878;2022-07-15T04:14:16;22.20;85.10
1221;DHT22;600;48.044;7.878;2022-07-15T04:16:43;22.10;85.00
1221;DHT22;600;48.044;7.878;2022-07-15T04:19:09;22.10;85.50
1221;DHT22;600;48.044;7.878;2022-07-15T04:21:36;22.00;85.50
1221;DHT22;600;48.044;7.878;2022-07-15T04:24:03;22.00;85.60
1221;DHT22;600;48.044;7.878;2022-07-15T04:26:29;22.00;85.50
1221;DHT22;600;48.044;7.878;2022-07-15T04:28:56;22.00;85.70
1221;DHT22;600;48.044;7.878;2022-07-15T04:31:24;21.90;85.70
1221;DHT22;600;48.044;7.878;2022-07-15T04:33:51;21.90;85.60
1221;DHT22;600;48.044;7.878;2022-07-15T04:36:17;21.80;85.00
1221;DHT22;600;48.044;7.878;2022-07-15T04:38:44;21.80;85.00
1221;DHT22;600;48.044;7.878;2022-07-15T04:41:10;21.70;85.30
1221;DHT22;600;48.044;7.878;2022-07-15T04:43:37;21.70;85.70
1221;DHT22;600;48.044;7.878;2022-07-15T04:46:04;21.70;86.00
1221;DHT22;600;48.044;7.878;2022-07-15T04:48:32;21.70;85.70
1221;DHT22;600;48.044;7.878;2022-07-15T04:51:16;21.70;86.00
1221;DHT22;600;48.044;7.878;2022-07-15T04:53:42;21.60;85.90
1221;DHT22;600;48.044;7.878;2022-07-15T04:56:09;21.60;85.70
1221;DHT22;600;48.044;7.878;2022-07-15T04:58:35;21.60;85.70
1221;DHT22;600;48.044;7.878;2022-07-15T05:01:02;21.60;85.20
1221;DHT22;600;48.044;7.878;2022-07-15T05:03:28;21.60;85.00
1221;DHT22;600;48.044;7.878;2022-07-15T05:05:57;21.60;84.50
1221;DHT22;600;48.044;7.878;2022-07-15T05:08:23;21.60;83.60
1221;DHT22;600;48.044;7.878;2022-07-15T05:10:50;21.70;84.90
1221;DHT22;600;48.044;7.878;2022-07-15T05:13:16;21.70;85.60
1221;DHT22;600;48.044;7.878;2022-07-15T05:15:43;21.60;85.90
1221;DHT22;600;48.044;7.878;2022-07-15T05:18:09;21.60;85.70
1221;DHT22;600;48.044;7.878;2022-07-15T05:20:36;21.60;85.60
1221;DHT22;600;48.044;7.878;2022-07-15T05:23:04;21.60;85.10
1221;DHT22;600;48.044;7.878;2022-07-15T05:25:30;21.60;85.30
1221;DHT22;600;48.044;7.878;2022-07-15T05:27:57;21.60;85.00
1221;DHT22;600;48.044;7.878;2022-07-15T05:30:23;21.60;85.30
1221;DHT22;600;48.044;7.878;2022-07-15T05:32:50;21.60;85.30
1221;DHT22;600;48.044;7.878;2022-07-15T05:35:17;21.60;85.50
1221;DHT22;600;48.044;7.878;2022-07-15T05:37:43;21.60;85.80
1221;DHT22;600;48.044;7.878;2022-07-15T05:40:12;21.60;85.90
1221;DHT22;600;48.044;7.878;2022-07-15T05:42:40;21.60;85.90
1221;DHT22;600;48.044;7.878;2022-07-15T05:45:07;21.60;85.80
1221;DHT22;600;48.044;7.878;2022-07-15T05:47:34;21.60;85.90
1221;DHT22;600;48.044;7.878;2022-07-15T05:50:01;21.60;85.90
1221;DHT22;600;48.044;7.878;2022-07-15T05:52:27;21.70;85.60
1221;DHT22;600;48.044;7.878;2022-07-15T05:54:54;21.70;85.60
1221;DHT22;600;48.044;7.878;2022-07-15T05:57:22;21.70;86.00
1221;DHT22;600;48.044;7.878;2022-07-15T05:59:48;21.70;85.40
1221;DHT22;600;48.044;7.878;2022-07-15T06:02:15;21.70;85.50
1221;DHT22;600;48.044;7.878;2022-07-15T06:04:41;21.80;85.70
1221;DHT22;600;48.044;7.878;2022-07-15T06:07:08;21.80;85.60
1221;DHT22;600;48.044;7.878;2022-07-15T06:09:34;21.80;85.60
1221;DHT22;600;48.044;7.878;2022-07-15T06:12:01;21.80;85.40
1221;DHT22;600;48.044;7.878;2022-07-15T06:14:29;21.80;85.40
1221;DHT22;600;48.044;7.878;2022-07-15T06:16:55;21.90;85.20
1221;DHT22;600;48.044;7.878;2022-07-15T06:19:22;21.90;84.80
1221;DHT22;600;48.044;7.878;2022-07-15T06:21:49;21.90;84.60
1221;DHT22;600;48.044;7.878;2022-07-15T06:24:15;21.90;84.80
1221;DHT22;600;48.044;7.878;2022-07-15T06:26:42;21.90;85.00
1221;DHT22;600;48.044;7.878;2022-07-15T06:29:08;22.00;85.40
1221;DHT22;600;48.044;7.878;2022-07-15T06:31:36;22.00;86.10
1221;DHT22;600;48.044;7.878;2022-07-15T06:34:03;22.10;86.80
1221;DHT22;600;48.044;7.878;2022-07-15T06:36:30;22.10;87.30
1221;DHT22;600;48.044;7.878;2022-07-15T06:38:56;22.10;87.40
1221;DHT22;600;48.044;7.878;2022-07-15T06:41:23;22.20;87.30
1221;DHT22;600;48.044;7.878;2022-07-15T06:46:54;22.30;86.40
1221;DHT22;600;48.044;7.878;2022-07-15T06:49:21;22.30;86.10
1221;DHT22;600;48.044;7.878;2022-07-15T06:51:47;22.30;86.50
1221;DHT22;600;48.044;7.878;2022-07-15T06:54:14;22.40;86.90
1221;DHT22;600;48.044;7.878;2022-07-15T06:56:40;22.40;86.30
1221;DHT22;600;48.044;7.878;2022-07-15T06:59:07;22.40;86.50
1221;DHT22;600;48.044;7.878;2022-07-15T07:01:34;22.50;86.40
1221;DHT22;600;48.044;7.878;2022-07-15T07:04:01;22.50;85.20
1221;DHT22;600;48.044;7.878;2022-07-15T07:06:28;22.50;85.20
1221;DHT22;600;48.044;7.878;2022-07-15T07:08:55;22.60;84.80
1221;DHT22;600;48.044;7.878;2022-07-15T07:11:21;22.60;84.40
1221;DHT22;600;48.044;7.878;2022-07-15T07:13:48;22.60;84.60
1221;DHT22;600;48.044;7.878;2022-07-15T07:16:15;22.70;84.30
1221;DHT22;600;48.044;7.878;2022-07-15T07:18:42;22.70;83.90
1221;DHT22;600;48.044;7.878;2022-07-15T07:21:12;22.70;83.80
1221;DHT22;600;48.044;7.878;2022-07-15T07:23:39;22.70;84.30
1221;DHT22;600;48.044;7.878;2022-07-15T07:26:06;22.70;84.50
1221;DHT22;600;48.044;7.878;2022-07-15T07:28:33;22.80;84.30
1221;DHT22;600;48.044;7.878;2022-07-15T07:30:59;22.80;83.80
1221;DHT22;600;48.044;7.878;2022-07-15T07:33:26;22.80;83.10
1221;DHT22;600;48.044;7.878;2022-07-15T07:35:53;22.80;82.50
1221;DHT22;600;48.044;7.878;2022-07-15T07:38:21;22.90;82.30
1221;DHT22;600;48.044;7.878;2022-07-15T07:40:47;22.90;83.30
1221;DHT22;600;48.044;7.878;2022-07-15T07:43:14;22.90;83.50
1221;DHT22;600;48.044;7.878;2022-07-15T07:45:41;22.90;83.20
1221;DHT22;600;48.044;7.878;2022-07-15T07:48:07;23.00;83.50
1221;DHT22;600;48.044;7.878;2022-07-15T07:50:34;23.00;82.40
1221;DHT22;600;48.044;7.878;2022-07-15T07:53:01;23.00;82.10
1221;DHT22;600;48.044;7.878;2022-07-15T07:55:29;23.00;82.40
1221;DHT22;600;48.044;7.878;2022-07-15T07:57:57;23.10;82.00
1221;DHT22;600;48.044;7.878;2022-07-15T08:00:25;23.10;82.40
1221;DHT22;600;48.044;7.878;2022-07-15T08:02:52;23.10;81.10
1221;DHT22;600;48.044;7.878;2022-07-15T08:05:19;23.20;81.60
1221;DHT22;600;48.044;7.878;2022-07-15T08:07:46;23.20;81.20
1221;DHT22;600;48.044;7.878;2022-07-15T08:10:13;23.20;81.40
1221;DHT22;600;48.044;7.878;2022-07-15T08:12:41;23.30;79.30
1221;DHT22;600;48.044;7.878;2022-07-15T08:15:08;23.30;80.00
1221;DHT22;600;48.044;7.878;2022-07-15T08:17:35;23.30;79.10
1221;DHT22;600;48.044;7.878;2022-07-15T08:20:03;23.30;79.30
1221;DHT22;600;48.044;7.878;2022-07-15T08:22:30;23.30;77.50
1221;DHT22;600;48.044;7.878;2022-07-15T08:24:56;23.30;78.40
1221;DHT22;600;48.044;7.878;2022-07-15T08:27:23;23.30;79.00
1221;DHT22;600;48.044;7.878;2022-07-15T08:29:51;23.40;78.00
1221;DHT22;600;48.044;7.878;2022-07-15T08:32:18;23.40;79.00
1221;DHT22;600;48.044;7.878;2022-07-15T08:34:45;23.30;77.60
1221;DHT22;600;48.044;7.878;2022-07-15T08:37:12;23.40;77.70
1221;DHT22;600;48.044;7.878;2022-07-15T08:39:39;23.40;77.00
1221;DHT22;600;48.044;7.878;2022-07-15T08:42:05;23.40;76.60
1221;DHT22;600;48.044;7.878;2022-07-15T08:44:32;23.50;78.70
1221;DHT22;600;48.044;7.878;2022-07-15T08:47:03;23.60;79.80
1221;DHT22;600;48.044;7.878;2022-07-15T08:49:30;23.60;77.00
1221;DHT22;600;48.044;7.878;2022-07-15T08:51:58;23.60;77.10
1221;DHT22;600;48.044;7.878;2022-07-15T08:54:25;23.60;76.20
1221;DHT22;600;48.044;7.878;2022-07-15T08:56:52;23.70;77.30
1221;DHT22;600;48.044;7.878;2022-07-15T08:59:18;23.80;76.60
1221;DHT22;600;48.044;7.878;2022-07-15T09:01:46;23.80;75.90
1221;DHT22;600;48.044;7.878;2022-07-15T09:04:15;23.80;76.50
1221;DHT22;600;48.044;7.878;2022-07-15T09:06:42;23.80;77.00
1221;DHT22;600;48.044;7.878;2022-07-15T09:09:25;23.90;77.70
1221;DHT22;600;48.044;7.878;2022-07-15T09:11:53;24.00;78.10
1221;DHT22;600;48.044;7.878;2022-07-15T09:14:21;23.90;75.60
1221;DHT22;600;48.044;7.878;2022-07-15T09:16:47;23.90;75.40
1221;DHT22;600;48.044;7.878;2022-07-15T09:19:15;23.90;75.10
1221;DHT22;600;48.044;7.878;2022-07-15T09:21:42;24.00;73.90
1221;DHT22;600;48.044;7.878;2022-07-15T09:24:17;24.00;74.30
1221;DHT22;600;48.044;7.878;2022-07-15T09:26:44;24.00;74.10
1221;DHT22;600;48.044;7.878;2022-07-15T09:29:10;24.10;74.80
1221;DHT22;600;48.044;7.878;2022-07-15T09:31:58;24.20;75.90
1221;DHT22;600;48.044;7.878;2022-07-15T09:40:37;24.30;73.70
1221;DHT22;600;48.044;7.878;2022-07-15T09:43:13;24.30;73.70
1221;DHT22;600;48.044;7.878;2022-07-15T09:45:39;24.40;74.30
1221;DHT22;600;48.044;7.878;2022-07-15T09:48:06;24.40;73.60
1221;DHT22;600;48.044;7.878;2022-07-15T09:50:33;24.50;73.40
1221;DHT22;600;48.044;7.878;2022-07-15T09:53:00;24.50;72.70
1221;DHT22;600;48.044;7.878;2022-07-15T09:55:28;24.60;71.50
1221;DHT22;600;48.044;7.878;2022-07-15T09:57:56;24.60;70.90
1221;DHT22;600;48.044;7.878;2022-07-15T10:00:24;24.60;70.30
1221;DHT22;600;48.044;7.878;2022-07-15T10:02:51;24.70;70.90
1221;DHT22;600;48.044;7.878;2022-07-15T10:05:17;24.70;70.20
1221;DHT22;600;48.044;7.878;2022-07-15T10:07:44;24.80;70.70
1221;DHT22;600;48.044;7.878;2022-07-15T10:10:11;24.80;72.10
1221;DHT22;600;48.044;7.878;2022-07-15T10:12:40;24.80;69.90
1221;DHT22;600;48.044;7.878;2022-07-15T10:15:11;24.90;71.00
1221;DHT22;600;48.044;7.878;2022-07-15T10:17:47;24.90;70.80
1221;DHT22;600;48.044;7.878;2022-07-15T10:20:29;24.90;71.60
1221;DHT22;600;48.044;7.878;2022-07-15T10:23:00;25.00;72.20
1221;DHT22;600;48.044;7.878;2022-07-15T10:25:34;25.00;71.20
1221;DHT22;600;48.044;7.878;2022-07-15T10:28:05;25.00;71.80
1221;DHT22;600;48.044;7.878;2022-07-15T10:30:35;25.10;71.60
1221;DHT22;600;48.044;7.878;2022-07-15T10:35:49;25.30;72.60
1221;DHT22;600;48.044;7.878;2022-07-15T10:38:20;25.30;71.80
1221;DHT22;600;48.044;7.878;2022-07-15T10:41:03;25.30;71.90
1221;DHT22;600;48.044;7.878;2022-07-15T10:43:37;25.40;70.80
1221;DHT22;600;48.044;7.878;2022-07-15T10:46:11;25.40;69.40
1221;DHT22;600;48.044;7.878;2022-07-15T10:48:43;25.40;67.60
1221;DHT22;600;48.044;7.878;2022-07-15T10:51:10;25.50;69.30
1221;DHT22;600;48.044;7.878;2022-07-15T10:53:42;25.50;67.40
1221;DHT22;600;48.044;7.878;2022-07-15T10:56:28;25.50;68.30
1221;DHT22;600;48.044;7.878;2022-07-15T10:59:08;25.60;68.70
1221;DHT22;600;48.044;7.878;2022-07-15T11:01:36;25.60;67.40
1221;DHT22;600;48.044;7.878;2022-07-15T11:04:11;25.70;66.20
1221;DHT22;600;48.044;7.878;2022-07-15T11:15:04;25.90;66.80
1221;DHT22;600;48.044;7.878;2022-07-15T11:20:36;25.90;65.90
1221;DHT22;600;48.044;7.878;2022-07-15T11:23:04;25.90;65.90
1221;DHT22;600;48.044;7.878;2022-07-15T11:25:33;26.00;66.30
1221;DHT22;600;48.044;7.878;2022-07-15T11:28:01;26.10;66.40
1221;DHT22;600;48.044;7.878;2022-07-15T11:30:29;26.20;67.10
1221;DHT22;600;48.044;7.878;2022-07-15T11:32:58;26.20;65.80
1221;DHT22;600;48.044;7.878;2022-07-15T11:35:26;26.30;65.60
1221;DHT22;600;48.044;7.878;2022-07-15T11:38:00;26.40;65.10
1221;DHT22;600;48.044;7.878;2022-07-15T11:40:28;26.40;64.30
1221;DHT22;600;48.044;7.878;2022-07-15T11:43:14;26.50;64.10
1221;DHT22;600;48.044;7.878;2022-07-15T11:45:59;26.50;63.00
1221;DHT22;600;48.044;7.878;2022-07-15T11:48:26;26.60;63.40
1221;DHT22;600;48.044;7.878;2022-07-15T11:50:55;26.60;62.30
1221;DHT22;600;48.044;7.878;2022-07-15T11:53:24;26.70;62.60
1221;DHT22;600;48.044;7.878;2022-07-15T11:55:54;26.80;62.90
1221;DHT22;600;48.044;7.878;2022-07-15T11:58:25;26.80;62.60
1221;DHT22;600;48.044;7.878;2022-07-15T12:00:52;26.90;62.20
1221;DHT22;600;48.044;7.878;2022-07-15T12:03:19;27.00;62.50
1221;DHT22;600;48.044;7.878;2022-07-15T12:05:59;27.00;62.00
1221;DHT22;600;48.044;7.878;2022-07-15T12:08:45;27.10;62.30
1221;DHT22;600;48.044;7.878;2022-07-15T12:11:30;27.10;61.50
1221;DHT22;600;48.044;7.878;2022-07-15T12:13:59;27.10;60.00
1221;DHT22;600;48.044;7.878;2022-07-15T12:16:29;27.10;58.90
1221;DHT22;600;48.044;7.878;2022-07-15T12:18:59;27.10;58.90
1221;DHT22;600;48.044;7.878;2022-07-15T12:21:27;27.20;59.10
1221;DHT22;600;48.044;7.878;2022-07-15T12:24:05;27.20;60.70
1221;DHT22;600;48.044;7.878;2022-07-15T12:26:33;27.20;59.70
1221;DHT22;600;48.044;7.878;2022-07-15T12:29:02;27.30;60.00
1221;DHT22;600;48.044;7.878;2022-07-15T12:31:30;27.30;60.10
1221;DHT22;600;48.044;7.878;2022-07-15T12:33:57;27.40;60.10
1221;DHT22;600;48.044;7.878;2022-07-15T12:36:26;27.40;59.90
1221;DHT22;600;48.044;7.878;2022-07-15T12:39:10;27.50;59.60
1221;DHT22;600;48.044;7.878;2022-07-15T12:41:39;27.60;59.40
1221;DHT22;600;48.044;7.878;2022-07-15T12:44:07;27.60;57.70
1221;DHT22;600;48.044;7.878;2022-07-15T12:47:04;27.70;59.90
1221;DHT22;600;48.044;7.878;2022-07-15T12:49:39;27.90;59.40
1221;DHT22;600;48.044;7.878;2022-07-15T12:52:12;27.90;58.10
1221;DHT22;600;48.044;7.878;2022-07-15T12:54:41;28.00;59.00
1221;DHT22;600;48.044;7.878;2022-07-15T12:57:18;28.00;57.50
1221;DHT22;600;48.044;7.878;2022-07-15T12:59:49;28.10;58.20
1221;DHT22;600;48.044;7.878;2022-07-15T13:02:16;28.20;57.80
1221;DHT22;600;48.044;7.878;2022-07-15T13:04:42;28.20;56.90
1221;DHT22;600;48.044;7.878;2022-07-15T13:07:09;28.30;58.90
1221;DHT22;600;48.044;7.878;2022-07-15T13:09:36;28.40;58.10
1221;DHT22;600;48.044;7.878;2022-07-15T13:12:04;28.50;58.70
1221;DHT22;600;48.044;7.878;2022-07-15T13:14:31;28.60;57.70
1221;DHT22;600;48.044;7.878;2022-07-15T13:16:58;28.70;57.50
1221;DHT22;600;48.044;7.878;2022-07-15T13:19:24;28.70;57.20
1221;DHT22;600;48.044;7.878;2022-07-15T13:21:51;28.70;57.50
1221;DHT22;600;48.044;7.878;2022-07-15T13:24:17;28.80;58.30
1221;DHT22;600;48.044;7.878;2022-07-15T13:26:44;29.00;58.00
1221;DHT22;600;48.044;7.878;2022-07-15T13:29:12;29.10;57.30
1221;DHT22;600;48.044;7.878;2022-07-15T13:31:38;29.20;58.10
1221;DHT22;600;48.044;7.878;2022-07-15T13:34:05;29.30;58.60
1221;DHT22;600;48.044;7.878;2022-07-15T13:36:32;29.40;57.40
1221;DHT22;600;48.044;7.878;2022-07-15T13:39:00;29.50;58.00
1221;DHT22;600;48.044;7.878;2022-07-15T13:41:26;29.60;57.20
1221;DHT22;600;48.044;7.878;2022-07-15T13:43:53;29.60;57.50
1221;DHT22;600;48.044;7.878;2022-07-15T13:46:21;29.70;57.50
1221;DHT22;600;48.044;7.878;2022-07-15T13:48:48;29.80;56.60
1221;DHT22;600;48.044;7.878;2022-07-15T13:51:14;29.90;55.80
1221;DHT22;600;48.044;7.878;2022-07-15T13:53:49;30.00;57.10
1221;DHT22;600;48.044;7.878;2022-07-15T13:56:16;30.10;57.30
1221;DHT22;600;48.044;7.878;2022-07-15T13:58:42;30.20;56.90
1221;DHT22;600;48.044;7.878;2022-07-15T14:01:09;30.30;55.80
1221;DHT22;600;48.044;7.878;2022-07-15T14:03:37;30.40;57.00
1221;DHT22;600;48.044;7.878;2022-07-15T14:06:05;30.50;57.20
1221;DHT22;600;48.044;7.878;2022-07-15T14:08:32;30.50;56.10
1221;DHT22;600;48.044;7.878;2022-07-15T14:10:59;30.60;56.10
1221;DHT22;600;48.044;7.878;2022-07-15T14:13:25;30.70;55.00
1221;DHT22;600;48.044;7.878;2022-07-15T14:15:52;30.70;55.90
1221;DHT22;600;48.044;7.878;2022-07-15T14:18:19;30.80;57.10
1221;DHT22;600;48.044;7.878;2022-07-15T14:21:07;30.90;57.30
1221;DHT22;600;48.044;7.878;2022-07-15T14:23:34;31.00;56.20
1221;DHT22;600;48.044;7.878;2022-07-15T14:26:01;31.00;54.80
1221;DHT22;600;48.044;7.878;2022-07-15T14:28:27;31.00;55.40
1221;DHT22;600;48.044;7.878;2022-07-15T14:30:54;31.10;55.50
1221;DHT22;600;48.044;7.878;2022-07-15T14:33:20;31.10;52.80
1221;DHT22;600;48.044;7.878;2022-07-15T14:35:47;31.10;54.00
1221;DHT22;600;48.044;7.878;2022-07-15T14:38:15;31.20;55.80
1221;DHT22;600;48.044;7.878;2022-07-15T14:40:42;31.20;55.90
1221;DHT22;600;48.044;7.878;2022-07-15T14:43:08;31.30;55.10
1221;DHT22;600;48.044;7.878;2022-07-15T14:45:35;31.30;52.60
1221;DHT22;600;48.044;7.878;2022-07-15T14:48:02;31.30;54.10
1221;DHT22;600;48.044;7.878;2022-07-15T14:50:29;31.30;54.00
1221;DHT22;600;48.044;7.878;2022-07-15T14:52:57;31.30;53.20
1221;DHT22;600;48.044;7.878;2022-07-15T14:55:25;31.30;52.30
1221;DHT22;600;48.044;7.878;2022-07-15T14:57:52;31.30;53.10
1221;DHT22;600;48.044;7.878;2022-07-15T15:00:19;31.30;51.70
1221;DHT22;600;48.044;7.878;2022-07-15T15:02:45;31.20;53.40
1221;DHT22;600;48.044;7.878;2022-07-15T15:05:12;31.20;54.60
1221;DHT22;600;48.044;7.878;2022-07-15T15:07:39;31.30;55.50
1221;DHT22;600;48.044;7.878;2022-07-15T15:10:06;31.40;55.50
1221;DHT22;600;48.044;7.878;2022-07-15T15:12:34;31.40;55.90
1221;DHT22;600;48.044;7.878;2022-07-15T15:15:00;31.40;54.20
1221;DHT22;600;48.044;7.878;2022-07-15T15:17:27;31.40;55.60
1221;DHT22;600;48.044;7.878;2022-07-15T15:19:53;31.40;54.60
1221;DHT22;600;48.044;7.878;2022-07-15T15:22:20;31.50;53.60
1221;DHT22;600;48.044;7.878;2022-07-15T15:24:47;31.60;54.00
1221;DHT22;600;48.044;7.878;2022-07-15T15:27:13;31.50;51.40
1221;DHT22;600;48.044;7.878;2022-07-15T15:29:41;31.50;54.10
1221;DHT22;600;48.044;7.878;2022-07-15T15:32:08;31.60;53.70
1221;DHT22;600;48.044;7.878;2022-07-15T15:34:38;31.60;53.30
1221;DHT22;600;48.044;7.878;2022-07-15T15:37:05;31.60;55.00
1221;DHT22;600;48.044;7.878;2022-07-15T15:39:32;31.70;55.10
1221;DHT22;600;48.044;7.878;2022-07-15T15:41:58;31.60;53.70
1221;DHT22;600;48.044;7.878;2022-07-15T15:44:25;31.60;54.70
1221;DHT22;600;48.044;7.878;2022-07-15T15:50:09;31.60;54.70
1221;DHT22;600;48.044;7.878;2022-07-15T15:52:35;31.60;55.70
1221;DHT22;600;48.044;7.878;2022-07-15T15:55:02;31.60;52.60
1221;DHT22;600;48.044;7.878;2022-07-15T15:57:29;31.50;51.80
1221;DHT22;600;48.044;7.878;2022-07-15T15:59:55;31.50;54.10
1221;DHT22;600;48.044;7.878;2022-07-15T16:02:22;31.50;50.80
1221;DHT22;600;48.044;7.878;2022-07-15T16:04:49;31.40;53.70
1221;DHT22;600;48.044;7.878;2022-07-15T16:07:17;31.40;52.90
1221;DHT22;600;48.044;7.878;2022-07-15T16:09:43;31.40;51.90
1221;DHT22;600;48.044;7.878;2022-07-15T16:12:10;31.30;50.00
1221;DHT22;600;48.044;7.878;2022-07-15T16:14:36;31.20;50.40
1221;DHT22;600;48.044;7.878;2022-07-15T16:17:03;31.20;53.20
1221;DHT22;600;48.044;7.878;2022-07-15T16:19:29;31.20;51.70
1221;DHT22;600;48.044;7.878;2022-07-15T16:21:56;31.20;52.80
1221;DHT22;600;48.044;7.878;2022-07-15T16:24:41;31.20;52.00
1221;DHT22;600;48.044;7.878;2022-07-15T16:27:08;31.20;55.30
1221;DHT22;600;48.044;7.878;2022-07-15T16:29:35;31.10;53.50
1221;DHT22;600;48.044;7.878;2022-07-15T16:32:02;31.10;52.80
1221;DHT22;600;48.044;7.878;2022-07-15T16:34:28;31.10;53.80
1221;DHT22;600;48.044;7.878;2022-07-15T16:36:55;31.00;52.70
1221;DHT22;600;48.044;7.878;2022-07-15T16:39:21;31.00;52.90
1221;DHT22;600;48.044;7.878;2022-07-15T16:41:49;31.00;54.50
1221;DHT22;600;48.044;7.878;2022-07-15T16:44:16;31.00;54.40
1221;DHT22;600;48.044;7.878;2022-07-15T16:46:42;30.90;52.00
1221;DHT22;600;48.044;7.878;2022-07-15T16:49:09;30.90;50.30